createdAt,value
2023-04-18T00:00:49.678Z,0.90
2023-04-18T00:03:16.657Z,1.10
2023-04-18T00:05:43.990Z,1.35
2023-04-18T00:08:10.715Z,1.20
2023-04-18T00:10:37.258Z,1.20
2023-04-18T00:13:03.843Z,1.40
2023-04-18T00:15:31.175Z,1.33
2023-04-18T00:17:57.816Z,1.27
2023-04-18T00:20:26.112Z,1.25
2023-04-18T00:22:53.229Z,1.50
2023-04-18T00:25:19.828Z,1.33
2023-04-18T00:27:46.416Z,1.30
2023-04-18T00:30:13.179Z,1.10
2023-04-18T00:32:39.748Z,1.60
2023-04-18T00:35:07.170Z,1.33
2023-04-18T00:37:33.714Z,1.95
2023-04-18T00:40:00.271Z,1.10
2023-04-18T00:42:29.271Z,1.20
2023-04-18T00:44:55.931Z,1.40
2023-04-18T00:47:22.695Z,1.40
2023-04-18T00:49:49.722Z,1.30
2023-04-18T00:52:18.379Z,1.50
2023-04-18T00:54:45.423Z,1.30
2023-04-18T00:57:12.757Z,1.33
2023-04-18T00:59:39.499Z,1.02
2023-04-18T01:02:07.715Z,1.67
2023-04-18T01:04:34.386Z,1.98
2023-04-18T01:07:02.102Z,1.17
2023-04-18T01:09:29.425Z,1.52
2023-04-18T01:11:56.164Z,1.52
2023-04-18T01:14:23.287Z,1.10
2023-04-18T01:16:49.886Z,1.35
2023-04-18T01:19:18.673Z,1.65
2023-04-18T01:21:45.428Z,1.60
2023-04-18T01:24:15.619Z,1.10
2023-04-18T01:26:44.056Z,1.77
2023-04-18T01:29:11.220Z,1.42
2023-04-18T01:31:38.584Z,1.65
2023-04-18T01:34:07.366Z,1.52
2023-04-18T01:36:35.197Z,1.92
2023-04-18T01:39:02.247Z,1.95
2023-04-18T01:41:32.265Z,1.33
2023-04-18T01:43:59.655Z,1.40
2023-04-18T01:46:26.399Z,1.92
2023-04-18T01:48:53.722Z,1.77
2023-04-18T01:51:21.396Z,1.55
2023-04-18T01:53:48.087Z,1.60
2023-04-18T01:56:14.733Z,1.90
2023-04-18T01:58:41.682Z,1.60
2023-04-18T02:01:08.578Z,1.67
2023-04-18T02:03:35.424Z,2.08
2023-04-18T02:06:04.023Z,1.70
2023-04-18T02:08:32.924Z,1.35
2023-04-18T02:11:01.230Z,1.38
2023-04-18T02:13:28.351Z,1.83
2023-04-18T02:15:54.885Z,2.00
2023-04-18T02:18:24.633Z,2.53
2023-04-18T02:20:51.910Z,1.48
2023-04-18T02:23:18.805Z,1.80
2023-04-18T02:25:45.678Z,1.85
2023-04-18T02:28:12.263Z,2.05
2023-04-18T02:30:38.843Z,1.63
2023-04-18T02:33:05.463Z,2.10
2023-04-18T02:35:32.091Z,1.63
2023-04-18T02:37:58.602Z,1.85
2023-04-18T02:40:25.134Z,2.17
2023-04-18T02:42:51.730Z,1.70
2023-04-18T02:45:18.387Z,1.88
2023-04-18T02:47:54.467Z,1.58
2023-04-18T02:50:22.575Z,1.80
2023-04-18T02:52:49.241Z,1.85
2023-04-18T02:55:18.118Z,2.08
2023-04-18T02:57:45.773Z,1.88
2023-04-18T03:00:38.517Z,2.45
2023-04-18T03:03:25.801Z,2.38
2023-04-18T03:06:18.508Z,1.90
2023-04-18T03:08:45.260Z,1.98
2023-04-18T03:11:12.641Z,2.15
2023-04-18T03:13:39.269Z,2.03
2023-04-18T03:16:06.624Z,2.10
2023-04-18T03:18:33.898Z,1.98
2023-04-18T03:21:01.756Z,1.92
2023-04-18T03:23:30.573Z,2.03
2023-04-18T03:25:58.256Z,2.38
2023-04-18T03:28:26.238Z,1.90
2023-04-18T03:30:53.352Z,1.60
2023-04-18T03:33:20.092Z,2.58
2023-04-18T03:35:49.109Z,2.85
2023-04-18T03:38:15.705Z,2.10
2023-04-18T03:40:44.410Z,1.80
2023-04-18T03:43:19.881Z,2.63
2023-04-18T03:45:47.617Z,2.72
2023-04-18T03:48:16.316Z,2.53
2023-04-18T03:50:44.876Z,2.38
2023-04-18T03:53:11.506Z,3.38
2023-04-18T03:55:38.998Z,2.55
2023-04-18T03:58:06.219Z,1.95
2023-04-18T04:00:33.674Z,1.90
2023-04-18T04:03:06.892Z,2.22
2023-04-18T04:05:33.738Z,3.03
2023-04-18T04:08:00.268Z,2.38
2023-04-18T04:10:26.810Z,1.88
2023-04-18T04:12:53.644Z,2.42
2023-04-18T04:15:20.902Z,2.35
2023-04-18T04:18:02.624Z,2.58
2023-04-18T04:20:29.981Z,2.58
2023-04-18T04:23:07.322Z,2.28
2023-04-18T04:25:35.485Z,2.38
2023-04-18T04:28:08.162Z,2.42
2023-04-18T04:30:43.903Z,2.90
2023-04-18T04:33:11.539Z,2.50
2023-04-18T04:35:38.165Z,3.10
2023-04-18T04:38:05.673Z,2.53
2023-04-18T04:40:40.015Z,2.25
2023-04-18T04:43:12.535Z,2.83
2023-04-18T04:45:41.328Z,2.65
2023-04-18T04:48:08.966Z,3.25
2023-04-18T04:50:38.259Z,3.15
2023-04-18T04:53:06.270Z,2.72
2023-04-18T04:55:33.539Z,1.85
2023-04-18T04:58:01.074Z,3.28
2023-04-18T05:00:52.411Z,2.33
2023-04-18T05:03:20.042Z,2.78
2023-04-18T05:05:47.256Z,2.28
2023-04-18T05:08:14.015Z,2.72
2023-04-18T05:10:41.468Z,2.92
2023-04-18T05:13:07.984Z,2.58
2023-04-18T05:15:34.617Z,2.72
2023-04-18T05:18:01.159Z,3.28
2023-04-18T05:20:27.859Z,2.92
2023-04-18T05:22:54.419Z,2.92
2023-04-18T05:25:21.094Z,2.42
2023-04-18T05:27:49.367Z,3.17
2023-04-18T05:30:22.349Z,3.28
2023-04-18T05:32:48.940Z,2.40
2023-04-18T05:35:15.667Z,2.42
2023-04-18T05:37:42.228Z,2.55
2023-04-18T05:40:09.219Z,2.42
2023-04-18T05:42:35.747Z,2.03
2023-04-18T05:45:02.338Z,2.80
2023-04-18T05:47:30.419Z,2.22
2023-04-18T05:49:57.175Z,3.13
2023-04-18T05:52:26.324Z,2.25
2023-04-18T05:54:53.460Z,3.95
2023-04-18T05:57:29.156Z,2.55
2023-04-18T05:59:55.735Z,2.63
2023-04-18T06:02:22.451Z,3.15
2023-04-18T06:04:49.816Z,2.25
2023-04-18T06:07:16.720Z,2.83
2023-04-18T06:09:43.376Z,3.22
2023-04-18T06:12:09.985Z,2.88
2023-04-18T06:14:36.513Z,2.95
2023-04-18T06:17:03.042Z,2.40
2023-04-18T06:19:29.600Z,3.10
2023-04-18T06:21:56.201Z,2.67
2023-04-18T06:24:23.703Z,2.40
2023-04-18T06:26:50.304Z,2.90
2023-04-18T06:29:18.044Z,2.47
2023-04-18T06:31:46.600Z,2.28
2023-04-18T06:34:13.498Z,2.80
2023-04-18T06:36:40.304Z,2.35
2023-04-18T06:39:06.841Z,3.15
2023-04-18T06:41:33.473Z,3.90
2023-04-18T06:44:04.290Z,2.53
2023-04-18T06:46:32.448Z,2.72
2023-04-18T06:48:59.287Z,3.05
2023-04-18T06:51:25.878Z,2.75
2023-04-18T06:53:53.606Z,2.38
2023-04-18T06:56:20.741Z,2.08
2023-04-18T06:58:48.192Z,3.00
2023-04-18T07:01:14.770Z,2.88
2023-04-18T07:03:41.378Z,2.50
2023-04-18T07:06:10.420Z,2.20
2023-04-18T07:08:37.025Z,2.53
2023-04-18T07:11:03.728Z,2.55
2023-04-18T07:13:30.330Z,2.65
2023-04-18T07:15:56.931Z,2.88
2023-04-18T07:18:36.623Z,3.25
2023-04-18T07:21:07.417Z,1.98
2023-04-18T07:23:34.520Z,2.67
2023-04-18T07:26:02.633Z,3.10
2023-04-18T07:28:31.079Z,2.50
2023-04-18T07:30:58.138Z,2.67
2023-04-18T07:33:25.309Z,2.72
2023-04-18T07:35:53.016Z,2.28
2023-04-18T07:38:19.726Z,2.80
2023-04-18T07:40:46.255Z,2.30
2023-04-18T07:43:12.787Z,2.60
2023-04-18T07:45:39.349Z,2.47
2023-04-18T07:48:06.233Z,1.85
2023-04-18T07:50:32.826Z,1.90
2023-04-18T07:52:59.501Z,2.28
2023-04-18T07:55:26.132Z,2.03
2023-04-18T07:57:52.669Z,2.55
2023-04-18T08:00:19.480Z,2.10
2023-04-18T08:02:46.489Z,2.17
2023-04-18T08:05:13.513Z,2.63
2023-04-18T08:07:40.487Z,2.38
2023-04-18T08:10:07.479Z,2.15
2023-04-18T08:12:34.430Z,2.33
2023-04-18T08:15:01.085Z,2.38
2023-04-18T08:17:27.646Z,2.00
2023-04-18T08:19:54.188Z,1.90
2023-04-18T08:22:20.770Z,2.35
2023-04-18T08:25:01.370Z,2.55
2023-04-18T08:27:31.372Z,2.28
2023-04-18T08:29:58.132Z,2.85
2023-04-18T08:32:24.775Z,2.00
2023-04-18T08:34:51.448Z,2.85
2023-04-18T08:37:18.064Z,2.05
2023-04-18T08:39:45.049Z,2.28
2023-04-18T08:42:15.866Z,2.72
2023-04-18T08:44:42.900Z,1.63
2023-04-18T08:47:10.678Z,2.72
2023-04-18T08:49:37.216Z,2.60
2023-04-18T08:52:10.325Z,1.60
2023-04-18T08:54:38.564Z,1.87
2023-04-18T08:57:07.347Z,2.22
2023-04-18T08:59:35.442Z,1.95
2023-04-18T09:02:04.089Z,2.10
2023-04-18T09:04:41.046Z,2.13
2023-04-18T09:07:10.068Z,2.38
2023-04-18T09:09:50.238Z,2.28
2023-04-18T09:12:25.363Z,1.90
2023-04-18T09:15:15.924Z,2.22
2023-04-18T09:17:50.958Z,2.10
2023-04-18T09:20:37.461Z,2.28
2023-04-18T09:23:10.758Z,1.95
2023-04-18T09:25:45.053Z,1.92
2023-04-18T09:28:27.794Z,1.88
2023-04-18T09:31:13.311Z,1.95
2023-04-18T09:33:44.742Z,2.40
2023-04-18T09:36:19.991Z,1.88
2023-04-18T09:38:47.601Z,2.10
2023-04-18T09:41:21.206Z,2.28
2023-04-18T09:46:17.576Z,1.83
2023-04-18T09:48:44.393Z,1.98
2023-04-18T09:51:14.662Z,2.08
2023-04-18T09:53:44.632Z,2.10
2023-04-18T09:56:32.524Z,2.08
2023-04-18T09:59:08.872Z,1.35
2023-04-18T10:01:36.460Z,1.77
2023-04-18T10:04:06.286Z,1.98
2023-04-18T10:06:34.315Z,1.63
2023-04-18T10:09:03.316Z,1.92
2023-04-18T10:11:31.667Z,1.70
2023-04-18T10:14:02.577Z,1.88
2023-04-18T10:16:29.761Z,2.38
2023-04-18T10:18:56.523Z,2.25
2023-04-18T10:21:23.128Z,2.35
2023-04-18T10:23:50.381Z,1.80
2023-04-18T10:26:16.965Z,2.30
2023-04-18T10:28:54.171Z,1.80
2023-04-18T10:31:22.480Z,2.63
2023-04-18T10:34:03.784Z,1.80
2023-04-18T10:36:32.964Z,1.88
2023-04-18T10:39:19.945Z,2.25
2023-04-18T10:41:51.097Z,2.42
2023-04-18T10:44:23.729Z,2.38
2023-04-18T10:46:52.532Z,2.05
2023-04-18T10:49:30.233Z,2.40
2023-04-18T10:52:03.125Z,2.72
2023-04-18T10:54:50.937Z,2.75
2023-04-18T10:57:17.696Z,2.78
2023-04-18T10:59:49.191Z,2.40
2023-04-18T11:02:27.099Z,2.22
2023-04-18T11:04:55.505Z,2.30
2023-04-18T11:07:45.984Z,2.13
2023-04-18T11:10:13.132Z,2.45
2023-04-18T11:12:41.147Z,2.60
2023-04-18T11:15:22.197Z,2.10
2023-04-18T11:18:04.937Z,2.33
2023-04-18T11:20:47.764Z,2.05
2023-04-18T11:23:21.344Z,1.33
2023-04-18T11:25:54.326Z,1.58
2023-04-18T11:28:22.072Z,1.47
2023-04-18T11:30:48.691Z,1.70
2023-04-18T11:33:15.454Z,2.20
2023-04-18T11:35:44.135Z,2.00
2023-04-18T11:38:13.708Z,1.65
2023-04-18T11:40:47.788Z,1.60
2023-04-18T11:43:23.526Z,2.13
2023-04-18T11:45:55.189Z,1.80
2023-04-18T11:48:22.434Z,2.30
2023-04-18T11:50:53.340Z,1.95
2023-04-18T11:53:36.889Z,1.70
2023-04-18T11:56:04.277Z,1.88
2023-04-18T11:58:32.985Z,2.53
2023-04-18T12:01:00.959Z,2.60
2023-04-18T12:03:29.248Z,1.63
2023-04-18T12:06:00.727Z,1.50
2023-04-18T12:08:27.390Z,2.28
2023-04-18T12:10:55.092Z,2.58
2023-04-18T12:13:26.769Z,1.85
2023-04-18T12:15:54.417Z,1.50
2023-04-18T12:18:21.445Z,1.95
2023-04-18T12:20:50.504Z,1.58
2023-04-18T12:23:38.194Z,1.55
2023-04-18T12:26:06.948Z,1.80
2023-04-18T12:28:34.890Z,1.73
2023-04-18T12:31:02.298Z,1.40
2023-04-18T12:33:28.936Z,1.40
2023-04-18T12:35:56.009Z,1.80
2023-04-18T12:38:23.618Z,1.80
2023-04-18T12:40:51.369Z,1.88
2023-04-18T12:43:18.614Z,1.92
2023-04-18T12:45:49.493Z,1.92
2023-04-18T12:48:16.345Z,1.65
2023-04-18T12:50:42.865Z,1.38
2023-04-18T12:53:09.505Z,1.23
2023-04-18T12:55:36.278Z,1.40
2023-04-18T12:58:03.288Z,1.30
2023-04-18T13:00:32.584Z,1.90
2023-04-18T13:02:59.768Z,1.90
2023-04-18T13:05:31.717Z,1.75
2023-04-18T13:08:15.173Z,1.83
2023-04-18T13:10:43.614Z,1.20
2023-04-18T13:13:10.369Z,2.10
2023-04-18T13:15:37.044Z,1.50
2023-04-18T13:18:06.275Z,1.35
2023-04-18T13:20:36.760Z,2.03
2023-04-18T13:23:03.687Z,1.55
2023-04-18T13:25:30.520Z,1.60
2023-04-18T13:27:58.369Z,2.17
2023-04-18T13:30:25.233Z,1.35
2023-04-18T13:32:51.840Z,2.15
2023-04-18T13:35:18.531Z,1.35
2023-04-18T13:37:46.061Z,1.75
2023-04-18T13:40:12.796Z,1.70
2023-04-18T13:42:39.400Z,1.90
2023-04-18T13:45:09.399Z,1.70
2023-04-18T13:47:36.582Z,1.42
2023-04-18T13:50:07.078Z,1.38
2023-04-18T13:52:33.620Z,1.48
2023-04-18T13:55:01.793Z,1.50
2023-04-18T13:57:32.119Z,1.67
2023-04-18T13:59:58.966Z,1.63
2023-04-18T14:02:25.838Z,1.50
2023-04-18T14:04:55.037Z,1.17
2023-04-18T14:07:21.799Z,1.67
2023-04-18T14:09:48.355Z,1.58
2023-04-18T14:12:14.932Z,1.42
2023-04-18T14:14:41.873Z,1.73
2023-04-18T14:17:08.402Z,1.40
2023-04-18T14:19:35.003Z,1.67
2023-04-18T14:22:01.517Z,1.30
2023-04-18T14:24:28.109Z,1.02
2023-04-18T14:26:54.795Z,1.10
2023-04-18T14:29:21.397Z,1.20
2023-04-18T14:31:48.030Z,1.25
2023-04-18T14:34:14.669Z,1.48
2023-04-18T14:36:41.433Z,1.40
2023-04-18T14:39:08.246Z,1.40
2023-04-18T14:41:34.884Z,1.00
2023-04-18T14:44:02.231Z,1.40
2023-04-18T14:46:29.174Z,1.40
2023-04-18T14:48:56.715Z,1.58
2023-04-18T14:51:23.842Z,1.00
2023-04-18T14:53:51.217Z,1.67
2023-04-18T14:56:37.164Z,1.73
2023-04-18T14:59:03.927Z,1.40
2023-04-18T15:01:30.711Z,1.35
2023-04-18T15:03:57.528Z,1.15
2023-04-18T15:06:24.306Z,1.70
2023-04-18T15:08:52.986Z,1.30
2023-04-18T15:11:20.239Z,1.35
2023-04-18T15:13:47.594Z,1.13
2023-04-18T15:16:14.560Z,1.48
2023-04-18T15:18:41.618Z,1.27
2023-04-18T15:21:08.630Z,1.40
2023-04-18T15:23:35.267Z,1.55
2023-04-18T15:26:02.252Z,1.33
2023-04-18T15:28:28.990Z,1.55
2023-04-18T15:30:58.658Z,0.98
2023-04-18T15:33:26.016Z,1.67
2023-04-18T15:35:52.605Z,1.90
2023-04-18T15:38:28.244Z,1.52
2023-04-18T15:40:54.842Z,1.55
2023-04-18T15:43:21.418Z,1.27
2023-04-18T15:45:48.262Z,1.42
2023-04-18T15:48:14.861Z,1.38
2023-04-18T15:50:42.243Z,1.23
2023-04-18T15:53:08.781Z,1.00
2023-04-18T15:55:38.146Z,1.75
2023-04-18T15:58:05.009Z,1.20
2023-04-18T16:00:31.573Z,1.40
2023-04-18T16:02:58.279Z,1.27
2023-04-18T16:05:25.081Z,1.58
2023-04-18T16:07:53.719Z,1.80
2023-04-18T16:10:20.488Z,1.60
2023-04-18T16:12:47.181Z,1.20
2023-04-18T16:15:13.721Z,1.23
2023-04-18T16:17:40.310Z,1.30
2023-04-18T16:20:08.894Z,1.08
2023-04-18T16:22:36.397Z,1.85
2023-04-18T16:25:04.100Z,1.25
2023-04-18T16:27:30.633Z,1.10
2023-04-18T16:29:57.288Z,1.75
2023-04-18T16:32:23.870Z,1.20
2023-04-18T16:34:50.553Z,1.13
2023-04-18T16:37:17.319Z,1.08
2023-04-18T16:39:43.981Z,1.35
2023-04-18T16:42:11.044Z,1.30
2023-04-18T16:44:39.330Z,1.13
2023-04-18T16:47:08.105Z,1.48
2023-04-18T16:49:34.734Z,1.80
2023-04-18T16:52:01.793Z,1.60
2023-04-18T16:54:28.352Z,1.73
2023-04-18T16:56:54.892Z,2.00
2023-04-18T16:59:21.539Z,1.40
2023-04-18T17:01:48.130Z,1.13
2023-04-18T17:04:15.518Z,1.65
2023-04-18T17:06:43.612Z,1.58
2023-04-18T17:09:13.354Z,2.10
2023-04-18T17:11:41.002Z,1.25
2023-04-18T17:14:08.610Z,1.45
2023-04-18T17:16:37.685Z,1.75
2023-04-18T17:19:04.723Z,1.85
2023-04-18T17:21:31.805Z,1.42
2023-04-18T17:24:01.700Z,1.50
2023-04-18T17:26:28.246Z,1.30
2023-04-18T17:28:54.825Z,1.10
2023-04-18T17:31:21.459Z,1.55
2023-04-18T17:33:50.647Z,0.82
2023-04-18T17:36:17.622Z,0.73
2023-04-18T17:38:50.269Z,1.20
2023-04-18T17:41:18.742Z,1.05
2023-04-18T17:43:45.899Z,0.90
2023-04-18T17:46:13.627Z,1.10
2023-04-18T17:48:40.970Z,1.15
2023-04-18T17:51:07.503Z,1.45
2023-04-18T17:53:34.079Z,1.08
2023-04-18T17:56:00.793Z,1.00
2023-04-18T17:58:28.021Z,1.42
2023-04-18T18:00:54.561Z,1.40
2023-04-18T18:03:21.352Z,1.23
2023-04-18T18:05:49.353Z,1.40
2023-04-18T18:08:15.924Z,1.30
2023-04-18T18:10:42.855Z,1.38
2023-04-18T18:13:09.360Z,1.75
2023-04-18T18:15:35.888Z,1.20
2023-04-18T18:18:02.542Z,1.05
2023-04-18T18:20:29.329Z,1.40
2023-04-18T18:22:57.074Z,0.93
2023-04-18T18:25:23.617Z,1.17
2023-04-18T18:27:51.222Z,1.35
2023-04-18T18:30:18.821Z,1.27
2023-04-18T18:32:45.438Z,1.30
2023-04-18T18:35:12.479Z,1.38
2023-04-18T18:37:39.017Z,1.52
2023-04-18T18:40:06.524Z,1.65
2023-04-18T18:42:33.046Z,1.77
2023-04-18T18:45:01.410Z,1.65
2023-04-18T18:47:28.324Z,1.45
2023-04-18T18:49:54.906Z,1.60
2023-04-18T18:52:21.731Z,1.23
2023-04-18T18:54:48.323Z,1.13
2023-04-18T18:57:15.011Z,1.65
2023-04-18T18:59:42.483Z,1.80
2023-04-18T19:02:09.097Z,1.65
2023-04-18T19:04:35.815Z,1.50
2023-04-18T19:07:02.424Z,1.52
2023-04-18T19:09:28.999Z,1.27
2023-04-18T19:11:56.796Z,1.55
2023-04-18T19:14:23.379Z,1.38
2023-04-18T19:16:50.566Z,1.80
2023-04-18T19:19:17.545Z,1.55
2023-04-18T19:21:45.922Z,1.77
2023-04-18T19:24:13.124Z,1.35
2023-04-18T19:26:39.786Z,1.33
2023-04-18T19:29:07.626Z,1.63
2023-04-18T19:31:34.959Z,1.33
2023-04-18T19:34:01.791Z,1.35
2023-04-18T19:36:28.396Z,1.40
2023-04-18T19:38:54.908Z,1.30
2023-04-18T19:41:21.659Z,1.52
2023-04-18T19:43:48.479Z,1.63
2023-04-18T19:46:15.305Z,1.42
2023-04-18T19:48:42.007Z,1.70
2023-04-18T19:51:08.523Z,1.30
2023-04-18T19:53:36.419Z,1.77
2023-04-18T19:56:03.024Z,1.88
2023-04-18T19:58:44.903Z,1.58
2023-04-18T20:01:12.560Z,1.73
2023-04-18T20:03:39.623Z,1.50
2023-04-18T20:06:06.898Z,1.60
2023-04-18T20:08:38.142Z,1.42
2023-04-18T20:11:07.747Z,1.90
2023-04-18T20:13:36.518Z,1.70
2023-04-18T20:16:04.874Z,1.65
2023-04-18T20:18:32.107Z,1.58
2023-04-18T20:20:58.654Z,1.73
2023-04-18T20:23:25.534Z,1.45
2023-04-18T20:25:52.081Z,1.67
2023-04-18T20:28:18.598Z,1.60
2023-04-18T20:30:45.633Z,1.23
2023-04-18T20:33:12.403Z,1.33
2023-04-18T20:35:38.952Z,1.85
2023-04-18T20:38:06.571Z,1.67
2023-04-18T20:40:34.124Z,1.48
2023-04-18T20:43:04.457Z,1.83
2023-04-18T20:45:31.784Z,1.42
2023-04-18T20:47:58.511Z,1.60
2023-04-18T20:50:25.027Z,1.45
2023-04-18T20:52:51.563Z,1.67
2023-04-18T20:55:18.223Z,1.98
2023-04-18T20:57:44.808Z,1.80
2023-04-18T21:00:13.900Z,1.80
2023-04-18T21:02:41.570Z,1.73
2023-04-18T21:05:08.687Z,1.92
2023-04-18T21:07:35.849Z,1.50
2023-04-18T21:10:03.554Z,1.88
2023-04-18T21:12:30.180Z,1.15
2023-04-18T21:14:56.711Z,1.73
2023-04-18T21:17:25.352Z,1.40
2023-04-18T21:19:52.322Z,1.55
2023-04-18T21:22:18.895Z,1.45
2023-04-18T21:24:46.696Z,1.70
2023-04-18T21:27:13.340Z,1.52
2023-04-18T21:29:40.757Z,2.03
2023-04-18T21:32:07.287Z,1.70
2023-04-18T21:34:33.838Z,1.70
2023-04-18T21:37:00.685Z,1.80
2023-04-18T21:39:27.623Z,1.63
2023-04-18T21:41:54.170Z,1.67
2023-04-18T21:44:20.743Z,1.70
2023-04-18T21:46:47.251Z,1.30
2023-04-18T21:49:13.779Z,1.08
2023-04-18T21:51:40.387Z,1.58
2023-04-18T21:54:09.780Z,1.95
2023-04-18T21:56:36.330Z,1.40
2023-04-18T21:59:02.851Z,1.58
2023-04-18T22:01:29.508Z,1.67
2023-04-18T22:03:56.173Z,1.55
2023-04-18T22:06:23.238Z,1.67
2023-04-18T22:08:50.032Z,1.30
2023-04-18T22:11:16.596Z,1.27
2023-04-18T22:13:44.678Z,1.35
2023-04-18T22:16:11.779Z,1.95
2023-04-18T22:18:38.483Z,1.73
2023-04-18T22:21:05.041Z,1.65
2023-04-18T22:23:31.627Z,1.35
2023-04-18T22:25:58.214Z,1.90
2023-04-18T22:28:24.848Z,1.58
2023-04-18T22:30:51.394Z,1.23
2023-04-18T22:33:18.067Z,1.60
2023-04-18T22:35:44.615Z,1.45
2023-04-18T22:38:11.291Z,1.30
2023-04-18T22:40:37.818Z,1.98
2023-04-18T22:43:04.344Z,1.77
2023-04-18T22:45:31.116Z,2.05
2023-04-18T22:47:57.744Z,1.27
2023-04-18T22:50:24.299Z,1.58
2023-04-18T22:52:51.007Z,1.20
2023-04-18T22:55:17.588Z,1.42
2023-04-18T22:57:44.084Z,1.60
2023-04-18T23:00:11.285Z,1.20
2023-04-18T23:02:38.027Z,1.38
2023-04-18T23:05:06.798Z,1.73
2023-04-18T23:07:33.306Z,1.15
2023-04-18T23:09:59.820Z,1.48
2023-04-18T23:12:26.778Z,1.42
2023-04-18T23:14:53.332Z,1.30
2023-04-18T23:17:19.944Z,1.40
2023-04-18T23:19:46.464Z,1.50
2023-04-18T23:22:13.008Z,1.50
2023-04-18T23:24:39.621Z,1.38
2023-04-18T23:27:06.273Z,1.63
2023-04-18T23:29:37.139Z,1.58
2023-04-18T23:32:03.863Z,1.33
2023-04-18T23:34:30.514Z,1.35
2023-04-18T23:36:57.026Z,1.85
2023-04-18T23:39:26.106Z,1.63
2023-04-18T23:41:52.685Z,1.55
2023-04-18T23:44:19.197Z,1.58
2023-04-18T23:46:45.923Z,1.45
2023-04-18T23:49:12.461Z,1.80
2023-04-18T23:51:39.011Z,1.35
2023-04-18T23:54:05.624Z,1.33
2023-04-18T23:56:32.222Z,1.88
2023-04-18T23:58:58.787Z,1.75
